createdAt,value
2022-08-23T00:00:44.410Z,0.00
2022-08-23T00:01:44.335Z,0.00
2022-08-23T00:02:44.393Z,0.00
2022-08-23T00:03:44.385Z,0.00
2022-08-23T00:05:03.495Z,0.00
2022-08-23T00:05:44.136Z,0.00
2022-08-23T00:06:43.959Z,0.00
2022-08-23T00:07:44.007Z,0.00
2022-08-23T00:08:44.027Z,0.00
2022-08-23T00:09:43.735Z,0.00
2022-08-23T00:10:43.661Z,0.00
2022-08-23T00:11:43.590Z,0.00
2022-08-23T00:12:43.510Z,0.00
2022-08-23T00:13:47.397Z,0.00
2022-08-23T00:14:45.427Z,0.00
2022-08-23T00:15:43.289Z,0.00
2022-08-23T00:16:43.214Z,0.00
2022-08-23T00:17:43.140Z,0.00
2022-08-23T00:18:43.064Z,0.00
2022-08-23T00:20:42.917Z,0.00
2022-08-23T00:21:42.841Z,0.00
2022-08-23T00:22:42.769Z,0.00
2022-08-23T00:23:42.689Z,0.00
2022-08-23T00:25:42.543Z,0.00
2022-08-23T00:26:42.467Z,0.00
2022-08-23T00:27:46.428Z,0.00
2022-08-23T00:28:42.366Z,0.00
2022-08-23T00:29:42.246Z,0.00
2022-08-23T00:30:42.169Z,0.00
2022-08-23T00:31:42.098Z,0.00
2022-08-23T00:32:42.027Z,0.00
2022-08-23T00:33:41.944Z,0.00
2022-08-23T00:34:41.870Z,0.00
2022-08-23T00:35:41.794Z,0.00
2022-08-23T00:36:41.718Z,0.00
2022-08-23T00:37:41.646Z,0.00
2022-08-23T00:38:41.571Z,0.00
2022-08-23T00:39:41.548Z,0.00
2022-08-23T00:40:41.421Z,0.00
2022-08-23T00:41:41.355Z,0.00
2022-08-23T00:42:41.270Z,0.00
2022-08-23T00:43:41.205Z,0.00
2022-08-23T00:44:41.122Z,0.00
2022-08-23T00:45:41.070Z,0.00
2022-08-23T00:46:40.972Z,0.00
2022-08-23T00:47:40.899Z,0.00
2022-08-23T00:48:40.825Z,0.00
2022-08-23T00:49:40.951Z,0.00
2022-08-23T00:50:40.674Z,0.00
2022-08-23T00:51:52.300Z,0.00
2022-08-23T00:52:40.573Z,0.00
2022-08-23T00:53:40.447Z,0.00
2022-08-23T00:54:40.374Z,0.00
2022-08-23T00:55:40.299Z,0.00
2022-08-23T00:56:40.222Z,0.00
2022-08-23T00:57:40.151Z,0.00
2022-08-23T00:58:40.074Z,0.00
2022-08-23T00:59:40.001Z,0.00
2022-08-23T01:00:39.930Z,0.00
2022-08-23T01:01:39.991Z,0.00
2022-08-23T01:02:39.775Z,0.00
2022-08-23T01:03:39.700Z,0.00
2022-08-23T01:04:39.624Z,0.00
2022-08-23T01:05:39.554Z,0.00
2022-08-23T01:06:39.475Z,0.00
2022-08-23T01:07:39.403Z,0.00
2022-08-23T01:08:39.325Z,0.00
2022-08-23T01:09:39.258Z,0.00
2022-08-23T01:10:39.174Z,0.00
2022-08-23T01:11:39.100Z,0.00
2022-08-23T01:12:39.022Z,0.00
2022-08-23T01:13:38.950Z,0.00
2022-08-23T01:14:38.874Z,0.00
2022-08-23T01:15:38.798Z,0.00
2022-08-23T01:16:38.721Z,0.00
2022-08-23T01:17:38.649Z,0.00
2022-08-23T01:18:38.571Z,0.00
2022-08-23T01:19:38.495Z,0.00
2022-08-23T01:20:38.422Z,0.00
2022-08-23T01:21:38.348Z,0.00
2022-08-23T01:22:38.271Z,0.00
2022-08-23T01:23:38.195Z,0.00
2022-08-23T01:25:06.514Z,0.00
2022-08-23T01:25:38.046Z,0.00
2022-08-23T01:26:37.970Z,0.00
2022-08-23T01:27:37.895Z,0.00
2022-08-23T01:28:37.819Z,0.00
2022-08-23T01:29:37.746Z,0.00
2022-08-23T01:30:37.671Z,0.00
2022-08-23T01:31:37.598Z,0.00
2022-08-23T01:32:37.519Z,0.00
2022-08-23T01:33:37.481Z,0.00
2022-08-23T01:34:37.368Z,0.00
2022-08-23T01:35:37.293Z,0.00
2022-08-23T01:36:37.255Z,0.00
2022-08-23T01:37:37.245Z,0.00
2022-08-23T01:38:37.066Z,0.00
2022-08-23T01:39:36.994Z,0.00
2022-08-23T01:40:36.915Z,0.00
2022-08-23T01:41:36.845Z,0.00
2022-08-23T01:42:36.768Z,0.00
2022-08-23T01:43:36.726Z,0.00
2022-08-23T01:44:36.617Z,0.00
2022-08-23T01:45:36.543Z,0.00
2022-08-23T01:46:36.503Z,0.00
2022-08-23T01:47:36.428Z,0.00
2022-08-23T01:48:36.316Z,0.00
2022-08-23T01:49:36.281Z,0.00
2022-08-23T01:51:36.092Z,0.00
2022-08-23T01:52:36.059Z,0.00
2022-08-23T01:53:35.943Z,0.00
2022-08-23T01:54:35.865Z,0.00
2022-08-23T01:55:35.787Z,0.00
2022-08-23T01:56:38.893Z,0.00
2022-08-23T01:57:35.636Z,0.00
2022-08-23T01:58:35.561Z,0.00
2022-08-23T01:59:35.487Z,0.00
2022-08-23T02:01:35.395Z,0.00
2022-08-23T02:02:35.259Z,0.00
2022-08-23T02:03:35.184Z,0.00
2022-08-23T02:04:35.110Z,0.00
2022-08-23T02:05:35.040Z,0.00
2022-08-23T02:06:34.965Z,0.00
2022-08-23T02:07:34.885Z,0.00
2022-08-23T02:08:35.211Z,0.00
2022-08-23T02:09:34.729Z,0.00
2022-08-23T02:10:34.657Z,0.00
2022-08-23T02:11:34.578Z,0.00
2022-08-23T02:12:34.524Z,0.00
2022-08-23T02:13:34.430Z,0.00
2022-08-23T02:14:34.390Z,0.00
2022-08-23T02:15:34.311Z,0.00
2022-08-23T02:16:34.238Z,0.00
2022-08-23T02:17:34.159Z,0.00
2022-08-23T02:18:34.089Z,0.00
2022-08-23T02:19:34.011Z,0.00
2022-08-23T02:20:33.933Z,0.00
2022-08-23T02:21:33.823Z,0.00
2022-08-23T02:23:33.673Z,0.00
2022-08-23T02:24:33.630Z,0.00
2022-08-23T02:25:33.928Z,0.00
2022-08-23T02:27:33.370Z,0.00
2022-08-23T02:28:33.295Z,0.00
2022-08-23T02:29:33.218Z,0.00
2022-08-23T02:30:33.144Z,0.00
2022-08-23T02:31:33.065Z,0.00
2022-08-23T02:32:32.990Z,0.00
2022-08-23T02:33:33.051Z,0.00
2022-08-23T02:34:32.842Z,0.00
2022-08-23T02:35:32.765Z,0.00
2022-08-23T02:36:32.688Z,0.00
2022-08-23T02:37:32.611Z,0.00
2022-08-23T02:38:32.977Z,0.00
2022-08-23T02:40:32.824Z,0.00
2022-08-23T02:41:32.347Z,0.00
2022-08-23T02:42:32.269Z,0.00
2022-08-23T02:43:32.157Z,0.00
2022-08-23T02:44:32.150Z,0.00
2022-08-23T02:45:32.043Z,0.00
2022-08-23T02:46:32.003Z,0.00
2022-08-23T02:47:31.895Z,0.00
2022-08-23T02:48:31.816Z,0.00
2022-08-23T02:49:31.716Z,0.00
2022-08-23T02:50:31.664Z,0.00
2022-08-23T02:51:32.099Z,0.00
2022-08-23T02:52:31.821Z,0.00
2022-08-23T02:53:31.442Z,0.00
2022-08-23T02:54:32.074Z,0.00
2022-08-23T02:55:31.285Z,0.00
2022-08-23T02:56:31.177Z,0.00
2022-08-23T02:57:31.592Z,0.00
2022-08-23T02:58:31.058Z,0.00
2022-08-23T02:59:30.986Z,0.00
2022-08-23T03:00:30.907Z,0.00
2022-08-23T03:01:30.834Z,0.00
2022-08-23T03:02:30.805Z,0.00
2022-08-23T03:03:30.884Z,0.00
2022-08-23T03:04:30.912Z,0.00
2022-08-23T03:05:30.535Z,0.00
2022-08-23T03:06:30.659Z,0.00
2022-08-23T03:07:30.784Z,0.00
2022-08-23T03:08:30.271Z,0.00
2022-08-23T03:09:30.229Z,0.00
2022-08-23T03:11:30.075Z,0.00
2022-08-23T03:12:30.262Z,0.00
2022-08-23T03:13:29.923Z,0.00
2022-08-23T03:14:29.816Z,0.00
2022-08-23T03:15:29.890Z,0.00
2022-08-23T03:16:29.869Z,0.00
2022-08-23T03:17:29.587Z,0.00
2022-08-23T03:18:29.550Z,0.00
2022-08-23T03:19:29.474Z,0.00
2022-08-23T03:20:29.362Z,0.00
2022-08-23T03:21:29.286Z,0.00
2022-08-23T03:22:30.201Z,0.00
2022-08-23T03:23:29.133Z,0.00
2022-08-23T03:24:29.061Z,0.00
2022-08-23T03:25:28.983Z,0.00
2022-08-23T03:26:28.911Z,0.00
2022-08-23T03:27:28.864Z,0.00
2022-08-23T03:28:28.793Z,0.00
2022-08-23T03:29:28.683Z,0.00
2022-08-23T03:30:28.608Z,0.00
2022-08-23T03:31:29.300Z,0.00
2022-08-23T03:32:28.459Z,0.00
2022-08-23T03:33:28.382Z,0.00
2022-08-23T03:34:28.307Z,0.00
2022-08-23T03:49:27.171Z,0.00
2022-08-23T03:50:27.109Z,0.00
2022-08-23T03:51:27.017Z,0.00
2022-08-23T03:52:27.042Z,0.00
2022-08-23T03:53:26.867Z,0.00
2022-08-23T03:54:26.793Z,0.00
2022-08-23T03:55:26.715Z,0.00
2022-08-23T03:56:26.640Z,0.00
2022-08-23T03:57:26.566Z,0.00
2022-08-23T03:58:26.491Z,0.00
2022-08-23T03:59:26.412Z,0.00
2022-08-23T04:00:26.341Z,0.00
2022-08-23T04:01:28.752Z,0.00
2022-08-23T04:02:26.189Z,0.00
2022-08-23T04:03:26.115Z,0.00
2022-08-23T04:04:26.036Z,0.00
2022-08-23T04:05:25.961Z,0.00
2022-08-23T04:06:25.887Z,0.00
2022-08-23T04:07:25.810Z,0.00
2022-08-23T04:08:31.854Z,0.00
2022-08-23T04:09:25.660Z,0.00
2022-08-23T04:10:25.585Z,0.00
2022-08-23T04:11:25.509Z,0.00
2022-08-23T04:12:25.433Z,0.00
2022-08-23T04:13:25.358Z,0.00
2022-08-23T04:14:25.285Z,0.00
2022-08-23T04:15:25.207Z,0.00
2022-08-23T04:16:25.131Z,0.00
2022-08-23T04:17:25.056Z,0.00
2022-08-23T04:18:24.981Z,0.00
2022-08-23T04:19:24.906Z,0.00
2022-08-23T04:20:24.830Z,0.00
2022-08-23T04:21:24.755Z,0.00
2022-08-23T04:22:24.681Z,0.00
2022-08-23T04:23:24.605Z,0.00
2022-08-23T04:24:24.528Z,0.00
2022-08-23T04:25:34.607Z,5.63
2022-08-23T04:26:29.673Z,5.63
2022-08-23T04:27:24.301Z,5.63
2022-08-23T04:28:24.231Z,5.63
2022-08-23T04:29:33.779Z,5.63
2022-08-23T04:30:24.077Z,5.63
2022-08-23T04:31:24.002Z,5.63
2022-08-23T04:32:28.321Z,5.63
2022-08-23T04:33:23.850Z,11.25
2022-08-23T04:34:23.776Z,11.25
2022-08-23T04:35:23.701Z,11.25
2022-08-23T04:36:23.701Z,11.25
2022-08-23T04:37:23.551Z,11.25
2022-08-23T04:38:24.990Z,11.25
2022-08-23T04:39:23.396Z,11.25
2022-08-23T04:40:23.422Z,16.88
2022-08-23T04:41:23.248Z,16.88
2022-08-23T04:42:23.175Z,16.88
2022-08-23T04:43:23.096Z,16.88
2022-08-23T04:44:23.023Z,16.88
2022-08-23T04:45:22.945Z,16.88
2022-08-23T04:46:22.873Z,22.50
2022-08-23T04:47:22.795Z,22.50
2022-08-23T04:48:22.720Z,22.50
2022-08-23T04:49:22.646Z,22.50
2022-08-23T04:50:22.571Z,22.50
2022-08-23T04:51:22.510Z,22.50
2022-08-23T04:52:22.420Z,22.50
2022-08-23T04:53:22.342Z,28.13
2022-08-23T04:54:22.833Z,28.13
2022-08-23T04:55:22.193Z,28.13
2022-08-23T04:56:22.118Z,28.13
2022-08-23T04:57:22.041Z,28.13
2022-08-23T04:58:22.017Z,28.13
2022-08-23T04:59:21.904Z,33.75
2022-08-23T05:00:21.817Z,33.75
2022-08-23T05:01:21.805Z,33.75
2022-08-23T05:02:21.664Z,33.75
2022-08-23T05:03:21.588Z,33.75
2022-08-23T05:04:21.516Z,33.75
2022-08-23T05:05:21.437Z,39.38
2022-08-23T05:06:21.363Z,39.38
2022-08-23T05:08:24.795Z,39.38
2022-08-23T05:09:23.715Z,39.38
2022-08-23T05:10:23.650Z,39.38
2022-08-23T05:11:23.565Z,39.38
2022-08-23T05:12:23.483Z,39.38
2022-08-23T05:13:23.405Z,45.00
2022-08-23T05:14:23.333Z,45.00
2022-08-23T05:15:23.255Z,45.00
2022-08-23T05:16:23.195Z,45.00
2022-08-23T05:17:23.105Z,45.00
2022-08-23T05:18:23.034Z,45.00
2022-08-23T05:19:22.955Z,45.00
2022-08-23T05:20:22.882Z,45.00
2022-08-23T05:21:22.804Z,50.63
2022-08-23T05:22:22.731Z,50.63
2022-08-23T05:23:23.496Z,50.63
2022-08-23T05:24:22.580Z,50.63
2022-08-23T05:25:22.507Z,56.25
2022-08-23T05:26:22.433Z,56.25
2022-08-23T05:27:22.353Z,56.25
2022-08-23T05:28:22.283Z,56.25
2022-08-23T05:29:22.211Z,56.25
2022-08-23T05:30:22.131Z,56.25
2022-08-23T05:31:22.059Z,56.25
2022-08-23T05:32:21.983Z,56.25
2022-08-23T05:33:21.909Z,56.25
2022-08-23T05:34:22.453Z,56.25
2022-08-23T05:35:21.758Z,56.25
2022-08-23T05:36:21.682Z,56.25
2022-08-23T05:37:21.708Z,56.25
2022-08-23T05:38:21.535Z,61.88
2022-08-23T05:39:25.793Z,61.88
2022-08-23T05:40:21.485Z,61.88
2022-08-23T05:41:21.311Z,61.88
2022-08-23T05:42:21.253Z,61.88
2022-08-23T05:43:21.159Z,61.88
2022-08-23T05:44:21.476Z,67.50
2022-08-23T05:45:21.226Z,67.50
2022-08-23T05:46:20.935Z,73.13
2022-08-23T05:47:24.753Z,73.13
2022-08-23T05:48:20.788Z,73.13
2022-08-23T05:49:21.263Z,73.13
2022-08-23T05:50:20.636Z,67.50
2022-08-23T05:51:20.562Z,67.50
2022-08-23T05:52:20.550Z,67.50
2022-08-23T05:53:20.462Z,67.50
2022-08-23T05:54:20.361Z,67.50
2022-08-23T05:55:20.263Z,67.50
2022-08-23T05:56:20.192Z,67.50
2022-08-23T05:57:20.112Z,67.50
2022-08-23T05:58:20.041Z,67.50
2022-08-23T05:59:19.965Z,67.50
2022-08-23T06:00:19.890Z,67.50
2022-08-23T06:01:19.861Z,67.50
2022-08-23T06:02:19.743Z,67.50
2022-08-23T06:03:19.669Z,67.50
2022-08-23T06:05:19.558Z,67.50
2022-08-23T06:06:19.785Z,67.50
2022-08-23T06:07:19.408Z,67.50
2022-08-23T06:08:19.328Z,67.50
2022-08-23T06:09:19.261Z,67.50
2022-08-23T06:10:19.380Z,67.50
2022-08-23T06:11:19.679Z,67.50
2022-08-23T06:12:19.200Z,67.50
2022-08-23T06:13:18.923Z,67.50
2022-08-23T06:14:18.890Z,67.50
2022-08-23T06:15:18.873Z,73.13
2022-08-23T06:16:18.698Z,73.13
2022-08-23T06:17:18.625Z,73.13
2022-08-23T06:18:18.551Z,73.13
2022-08-23T06:19:18.477Z,73.13
2022-08-23T06:20:18.443Z,73.13
2022-08-23T06:21:18.328Z,73.13
2022-08-23T06:22:18.285Z,73.13
2022-08-23T06:23:18.219Z,73.13
2022-08-23T06:24:18.104Z,73.13
2022-08-23T06:25:18.838Z,73.13
2022-08-23T06:26:18.191Z,73.13
2022-08-23T06:30:17.658Z,78.75
2022-08-23T06:31:17.687Z,78.75
2022-08-23T06:34:10.242Z,78.75
2022-08-23T06:35:37.746Z,84.38
2022-08-23T06:36:10.102Z,78.75
2022-08-23T06:38:09.628Z,78.75
2022-08-23T06:39:09.560Z,78.75
2022-08-23T06:40:09.538Z,78.75
2022-08-23T06:41:09.457Z,78.75
2022-08-23T06:42:34.487Z,84.38
2022-08-23T06:43:09.264Z,78.75
2022-08-23T06:44:09.288Z,78.75
2022-08-23T06:45:09.111Z,78.75
2022-08-23T06:46:09.036Z,78.75
2022-08-23T06:47:08.969Z,78.75
2022-08-23T06:48:10.304Z,78.75
2022-08-23T06:49:09.017Z,84.38
2022-08-23T06:50:08.940Z,84.38
2022-08-23T06:51:08.905Z,84.38
2022-08-23T06:53:09.923Z,90.00
2022-08-23T06:54:08.444Z,95.63
2022-08-23T06:55:13.125Z,95.63
2022-08-23T06:56:08.295Z,90.00
2022-08-23T06:57:42.000Z,95.63
2022-08-23T06:58:08.146Z,95.63
2022-08-23T06:59:08.074Z,90.00
2022-08-23T07:00:07.999Z,95.63
2022-08-23T07:01:12.028Z,95.63
2022-08-23T07:02:08.220Z,95.63
2022-08-23T07:03:07.837Z,101.25
2022-08-23T07:04:07.706Z,101.25
2022-08-23T07:05:07.634Z,101.25
2022-08-23T07:06:07.555Z,101.25
2022-08-23T07:07:11.301Z,101.25
2022-08-23T07:08:07.410Z,101.25
2022-08-23T07:09:07.337Z,101.25
2022-08-23T07:11:37.398Z,101.25
2022-08-23T07:12:34.702Z,106.88
2022-08-23T07:13:34.629Z,101.25
2022-08-23T07:14:34.594Z,101.25
2022-08-23T07:15:34.480Z,101.25
2022-08-23T07:16:34.477Z,101.25
2022-08-23T07:17:34.340Z,101.25
2022-08-23T07:18:34.285Z,106.88
2022-08-23T07:19:34.187Z,112.50
2022-08-23T07:21:21.850Z,118.13
2022-08-23T07:22:21.777Z,118.13
2022-08-23T07:23:21.757Z,118.13
2022-08-23T07:24:21.632Z,112.50
2022-08-23T07:25:21.556Z,112.50
2022-08-23T07:47:45.478Z,140.63
2022-08-23T07:49:29.283Z,140.63
2022-08-23T07:52:52.548Z,140.63
2022-08-23T07:53:49.858Z,140.63
2022-08-23T07:54:50.188Z,151.88
2022-08-23T07:55:52.330Z,163.13
2022-08-23T07:56:49.739Z,174.38
2022-08-23T08:00:15.214Z,213.75
2022-08-23T08:01:15.140Z,225.00
2022-08-23T08:02:15.205Z,230.63
2022-08-23T08:03:15.048Z,236.25
2022-08-23T08:04:14.923Z,241.88
2022-08-23T08:05:19.590Z,247.50
2022-08-23T08:06:14.779Z,253.13
2022-08-23T08:07:20.350Z,258.75
2022-08-23T08:08:14.634Z,264.38
2022-08-23T08:09:14.562Z,270.00
2022-08-23T08:10:14.492Z,270.00
2022-08-23T08:11:14.416Z,275.63
2022-08-23T08:12:14.347Z,275.63
2022-08-23T08:13:14.273Z,270.00
2022-08-23T08:14:15.423Z,264.38
2022-08-23T08:15:16.750Z,258.75
2022-08-23T08:16:14.139Z,258.75
2022-08-23T08:17:13.992Z,258.75
2022-08-23T08:18:13.919Z,258.75
2022-08-23T08:19:18.901Z,264.38
2022-08-23T08:20:13.774Z,264.38
2022-08-23T08:21:13.701Z,270.00
2022-08-23T08:22:13.630Z,275.63
2022-08-23T08:23:13.559Z,270.00
2022-08-23T08:24:14.298Z,264.38
2022-08-23T08:25:55.902Z,264.38
2022-08-23T08:27:38.322Z,264.38
2022-08-23T08:28:38.250Z,258.75
2022-08-23T08:29:38.187Z,258.75
2022-08-23T08:30:38.107Z,264.38
2022-08-23T08:31:38.132Z,258.75
2022-08-23T08:32:46.718Z,258.75
2022-08-23T08:33:38.100Z,264.38
2022-08-23T08:34:37.824Z,264.38
2022-08-23T08:35:37.854Z,264.38
2022-08-23T08:36:37.717Z,258.75
2022-08-23T08:37:37.613Z,253.13
2022-08-23T08:38:38.849Z,253.13
2022-08-23T08:39:37.474Z,247.50
2022-08-23T08:40:40.021Z,247.50
2022-08-23T08:41:37.345Z,241.88
2022-08-23T08:42:37.259Z,241.88
2022-08-23T08:43:37.189Z,241.88
2022-08-23T08:44:37.119Z,241.88
2022-08-23T08:45:37.051Z,236.25
2022-08-23T08:46:37.007Z,230.63
2022-08-23T08:47:36.907Z,225.00
2022-08-23T08:48:36.834Z,225.00
2022-08-23T08:49:36.768Z,225.00
2022-08-23T08:50:36.704Z,219.38
2022-08-23T08:52:37.769Z,213.75
2022-08-23T08:53:36.482Z,213.75
2022-08-23T08:54:36.413Z,213.75
2022-08-23T08:55:39.016Z,213.75
2022-08-23T08:56:36.270Z,208.13
2022-08-23T08:57:36.204Z,202.50
2022-08-23T08:58:36.131Z,213.75
2022-08-23T08:59:36.060Z,213.75
2022-08-23T09:00:35.988Z,219.38
2022-08-23T09:01:35.988Z,213.75
2022-08-23T09:02:35.937Z,213.75
2022-08-23T09:03:35.830Z,213.75
2022-08-23T09:04:37.128Z,213.75
2022-08-23T09:05:35.638Z,225.00
2022-08-23T09:06:35.568Z,230.63
2022-08-23T09:07:35.497Z,247.50
2022-08-23T09:08:35.427Z,264.38
2022-08-23T09:09:35.357Z,270.00
2022-08-23T09:10:35.286Z,281.25
2022-08-23T09:11:35.215Z,286.88
2022-08-23T09:12:35.144Z,292.50
2022-08-23T09:13:35.074Z,286.88
2022-08-23T09:14:35.004Z,292.50
2022-08-23T09:15:34.971Z,298.13
2022-08-23T09:16:34.864Z,298.13
2022-08-23T09:17:34.793Z,292.50
2022-08-23T09:18:34.720Z,281.25
2022-08-23T09:19:34.651Z,264.38
2022-08-23T09:20:34.860Z,247.50
2022-08-23T09:21:34.512Z,236.25
2022-08-23T09:22:35.526Z,236.25
2022-08-23T09:23:34.377Z,230.63
2022-08-23T09:26:34.162Z,208.13
2022-08-23T09:27:34.091Z,202.50
2022-08-23T09:28:34.021Z,196.88
2022-08-23T09:29:33.951Z,191.25
2022-08-23T09:30:33.880Z,185.63
2022-08-23T09:31:35.979Z,185.63
2022-08-23T09:32:33.742Z,185.63
2022-08-23T09:33:33.668Z,191.25
2022-08-23T09:34:33.597Z,191.25
2022-08-23T09:35:33.528Z,191.25
2022-08-23T09:36:33.460Z,191.25
2022-08-23T09:37:33.392Z,196.88
2022-08-23T09:38:33.318Z,191.25
2022-08-23T09:39:33.248Z,191.25
2022-08-23T09:40:33.184Z,191.25
2022-08-23T09:41:33.109Z,191.25
2022-08-23T09:42:33.037Z,191.25
2022-08-23T09:43:32.966Z,191.25
2022-08-23T09:44:32.898Z,191.25
2022-08-23T09:45:35.317Z,191.25
2022-08-23T09:46:32.833Z,196.88
2022-08-23T09:47:32.686Z,191.25
2022-08-23T09:48:32.619Z,196.88
2022-08-23T09:49:32.547Z,196.88
2022-08-23T09:50:32.479Z,196.88
2022-08-23T09:51:32.407Z,196.88
2022-08-23T09:52:32.340Z,196.88
2022-08-23T09:53:32.267Z,196.88
2022-08-23T09:54:32.197Z,196.88
2022-08-23T09:55:32.138Z,196.88
2022-08-23T09:56:32.058Z,196.88
2022-08-23T09:57:31.991Z,196.88
2022-08-23T09:58:32.067Z,202.50
2022-08-23T09:59:31.853Z,202.50
2022-08-23T10:00:31.780Z,202.50
2022-08-23T10:01:34.369Z,202.50
2022-08-23T10:02:31.637Z,202.50
2022-08-23T10:03:31.568Z,202.50
2022-08-23T10:04:31.605Z,208.13
2022-08-23T10:05:31.430Z,202.50
2022-08-23T10:06:31.480Z,202.50
2022-08-23T10:07:31.300Z,202.50
2022-08-23T10:08:31.219Z,208.13
2022-08-23T10:09:31.148Z,208.13
2022-08-23T10:10:31.079Z,208.13
2022-08-23T10:11:31.014Z,208.13
2022-08-23T10:12:30.940Z,208.13
2022-08-23T10:13:30.870Z,208.13
2022-08-23T10:14:31.313Z,208.13
2022-08-23T10:15:34.347Z,208.13
2022-08-23T10:17:58.292Z,213.75
2022-08-23T10:18:58.110Z,219.38
2022-08-23T10:19:58.042Z,213.75
2022-08-23T10:20:57.976Z,213.75
2022-08-23T10:21:57.907Z,219.38
2022-08-23T10:22:57.833Z,219.38
2022-08-23T10:23:57.764Z,219.38
2022-08-23T10:24:57.696Z,219.38
2022-08-23T10:25:57.625Z,225.00
2022-08-23T10:26:57.555Z,225.00
2022-08-23T10:27:57.678Z,225.00
2022-08-23T10:28:57.414Z,230.63
2022-08-23T10:29:57.347Z,225.00
2022-08-23T10:30:57.328Z,230.63
2022-08-23T10:31:59.255Z,230.63
2022-08-23T10:32:57.136Z,230.63
2022-08-23T10:33:57.069Z,230.63
2022-08-23T10:34:57.001Z,236.25
2022-08-23T10:35:56.930Z,236.25
2022-08-23T10:36:56.860Z,236.25
2022-08-23T10:37:56.793Z,241.88
2022-08-23T10:38:56.721Z,241.88
2022-08-23T10:39:59.201Z,236.25
2022-08-23T10:40:56.585Z,219.38
2022-08-23T10:41:56.515Z,219.38
2022-08-23T10:42:56.445Z,213.75
2022-08-23T10:43:56.374Z,208.13
2022-08-23T10:44:56.305Z,208.13
2022-08-23T10:46:00.210Z,208.13
2022-08-23T10:46:56.164Z,219.38
2022-08-23T10:47:56.190Z,236.25
2022-08-23T10:48:56.025Z,253.13
2022-08-23T10:49:55.957Z,264.38
2022-08-23T10:50:56.378Z,264.38
2022-08-23T10:51:55.819Z,264.38
2022-08-23T10:52:55.751Z,264.38
2022-08-23T10:53:55.682Z,275.63
2022-08-23T10:54:55.610Z,281.25
2022-08-23T10:55:55.544Z,270.00
2022-08-23T10:56:55.473Z,247.50
2022-08-23T10:57:55.496Z,241.88
2022-08-23T10:58:55.334Z,247.50
2022-08-23T10:59:55.278Z,241.88
2022-08-23T11:00:55.196Z,241.88
2022-08-23T11:01:55.222Z,241.88
2022-08-23T11:02:55.100Z,241.88
2022-08-23T11:03:55.140Z,241.88
2022-08-23T11:04:54.917Z,253.13
2022-08-23T11:05:54.853Z,309.38
2022-08-23T11:06:54.787Z,376.88
2022-08-23T11:07:54.714Z,753.75
2022-08-23T11:08:54.644Z,551.25
2022-08-23T11:09:54.575Z,427.50
2022-08-23T11:10:56.611Z,292.50
2022-08-23T11:11:54.436Z,281.25
2022-08-23T11:12:54.369Z,286.88
2022-08-23T11:13:54.335Z,286.88
2022-08-23T11:14:54.230Z,298.13
2022-08-23T11:15:54.191Z,433.13
2022-08-23T11:16:54.125Z,382.50
2022-08-23T11:17:54.027Z,489.38
2022-08-23T11:18:53.959Z,680.63
2022-08-23T11:19:54.126Z,939.38
2022-08-23T11:20:53.871Z,725.63
2022-08-23T11:21:53.752Z,466.88
2022-08-23T11:22:53.680Z,573.75
2022-08-23T11:23:53.611Z,540.00
2022-08-23T11:24:53.545Z,405.00
2022-08-23T11:25:53.476Z,388.13
2022-08-23T11:26:53.410Z,382.50
2022-08-23T11:27:53.342Z,376.88
2022-08-23T11:28:53.273Z,371.25
2022-08-23T11:29:53.205Z,461.25
2022-08-23T11:30:53.723Z,804.38
2022-08-23T11:31:53.069Z,748.13
2022-08-23T11:32:52.999Z,433.13
2022-08-23T11:33:52.984Z,433.13
2022-08-23T11:34:52.898Z,421.88
2022-08-23T11:36:52.767Z,523.13
2022-08-23T11:38:52.593Z,770.63
2022-08-23T11:40:52.509Z,759.38
2022-08-23T11:43:52.259Z,1805.63
2022-08-23T11:44:52.534Z,2064.38
2022-08-23T11:45:52.200Z,1951.88
2022-08-23T11:47:51.991Z,2604.38
2022-08-23T11:48:51.928Z,3003.75
2022-08-23T11:49:51.891Z,3150.00
2022-08-23T11:50:57.564Z,2992.50
2022-08-23T11:51:51.730Z,3549.38
2022-08-23T11:52:51.671Z,3577.50
2022-08-23T11:53:51.804Z,3566.25
2022-08-23T11:54:51.538Z,3616.88
2022-08-23T11:55:51.472Z,3628.13
2022-08-23T11:57:53.972Z,3583.13
2022-08-23T11:58:51.285Z,3549.38
2022-08-23T11:59:51.225Z,3515.63
2022-08-23T12:00:51.160Z,3397.50
2022-08-23T12:01:51.099Z,3071.25
2022-08-23T12:02:51.166Z,2784.38
2022-08-23T12:03:51.090Z,3071.25
2022-08-23T12:04:50.916Z,3459.38
2022-08-23T12:05:50.858Z,2525.63
2022-08-23T12:06:54.897Z,1125.00
2022-08-23T12:07:50.736Z,2193.75
2022-08-23T12:08:50.677Z,3622.50
2022-08-23T12:09:50.618Z,3701.25
2022-08-23T12:10:53.988Z,3695.63
2022-08-23T12:11:51.509Z,3650.63
2022-08-23T12:12:50.437Z,3650.63
2022-08-23T12:13:50.379Z,3605.63
2022-08-23T12:14:50.320Z,3667.50
2022-08-23T12:15:50.290Z,3746.25
2022-08-23T12:16:50.310Z,3240.00
2022-08-23T12:17:50.142Z,3442.50
2022-08-23T12:18:50.119Z,3751.88
2022-08-23T12:19:50.027Z,3751.88
2022-08-23T12:20:49.970Z,3723.75
2022-08-23T12:21:49.909Z,3735.00
2022-08-23T12:22:49.857Z,3723.75
2022-08-23T12:23:52.468Z,3785.63
2022-08-23T12:24:52.462Z,3757.50
2022-08-23T12:25:49.684Z,3678.75
2022-08-23T12:26:49.668Z,3622.50
2022-08-23T12:27:49.570Z,3560.63
2022-08-23T12:28:49.513Z,3583.13
2022-08-23T12:29:49.454Z,3521.25
2022-08-23T12:30:49.457Z,3555.00
2022-08-23T12:31:49.374Z,3571.88
2022-08-23T12:32:49.323Z,3566.25
2022-08-23T12:33:49.233Z,3465.00
2022-08-23T12:35:49.120Z,3296.25
2022-08-23T12:36:50.207Z,3442.50
2022-08-23T13:29:01.812Z,3408.75
2022-08-23T13:30:01.756Z,3273.75
2022-08-23T13:33:37.576Z,3256.88
2022-08-23T13:58:51.358Z,2328.75
2022-08-23T13:59:51.311Z,2458.13
2022-08-23T14:00:55.591Z,2435.63
2022-08-23T14:01:51.391Z,2323.13
2022-08-23T14:02:51.134Z,1985.63
2022-08-23T14:03:51.336Z,1738.13
2022-08-23T14:04:51.118Z,1923.75
2022-08-23T14:05:50.961Z,2559.38
2022-08-23T14:06:50.904Z,2356.88
2022-08-23T14:07:50.848Z,2441.25
2022-08-23T14:08:50.794Z,2424.38
2022-08-23T14:09:54.821Z,2638.13
2022-08-23T14:10:50.680Z,2750.63
2022-08-23T14:11:50.620Z,2660.63
2022-08-23T14:12:50.568Z,2621.25
2022-08-23T14:13:50.507Z,2694.38
2022-08-23T14:14:50.452Z,2812.50
2022-08-23T14:15:58.604Z,2851.88
2022-08-23T14:16:50.410Z,2868.75
2022-08-23T14:17:50.279Z,2694.38
2022-08-23T14:20:51.202Z,2576.25
2022-08-23T14:21:50.212Z,2711.25
2022-08-23T14:22:50.000Z,2655.00
2022-08-23T14:23:49.943Z,2716.88
2022-08-23T14:24:49.887Z,2694.38
2022-08-23T14:25:49.830Z,2638.13
2022-08-23T14:26:52.328Z,2671.88
2022-08-23T14:27:49.719Z,2666.25
2022-08-23T14:28:49.665Z,2615.63
2022-08-23T14:29:49.607Z,2581.88
2022-08-23T14:30:49.577Z,2581.88
2022-08-23T14:31:49.496Z,2379.38
2022-08-23T14:32:49.441Z,2565.00
2022-08-23T14:33:49.387Z,2536.88
2022-08-23T14:34:49.336Z,2570.63
2022-08-23T14:35:49.276Z,2486.25
2022-08-23T14:38:05.261Z,2587.50
2022-08-23T14:38:49.959Z,2401.88
2022-08-23T14:39:49.102Z,2514.38
2022-08-23T14:40:48.998Z,2531.25
2022-08-23T14:41:52.122Z,2531.25
2022-08-23T14:42:48.894Z,2536.88
2022-08-23T14:43:48.840Z,2531.25
2022-08-23T14:44:48.785Z,2503.13
2022-08-23T14:45:48.793Z,2497.50
2022-08-23T14:46:48.662Z,2475.00
2022-08-23T14:47:48.606Z,2463.75
2022-08-23T14:48:48.554Z,2430.00
2022-08-23T14:49:53.332Z,2430.00
2022-08-23T14:50:48.442Z,2413.13
2022-08-23T14:51:48.388Z,2368.13
2022-08-23T14:52:48.330Z,2345.63
2022-08-23T14:53:48.273Z,2317.50
2022-08-23T14:54:49.508Z,2295.00
2022-08-23T14:55:48.164Z,2278.13
2022-08-23T14:56:48.109Z,2255.63
2022-08-23T14:57:48.054Z,2233.13
2022-08-23T14:58:48.001Z,2205.00
2022-08-23T14:59:47.949Z,2199.38
2022-08-23T15:00:47.923Z,2182.50
2022-08-23T15:01:47.841Z,2176.88
2022-08-23T15:02:47.784Z,2165.63
2022-08-23T15:03:47.799Z,2154.38
2022-08-23T15:04:47.770Z,2154.38
2022-08-23T15:05:47.614Z,2148.75
2022-08-23T15:07:13.839Z,2131.88
2022-08-23T15:07:47.503Z,2103.75
2022-08-23T15:08:47.450Z,2086.88
2022-08-23T15:09:47.393Z,2058.75
2022-08-23T15:10:52.581Z,2030.63
2022-08-23T15:13:20.421Z,1996.88
2022-08-23T15:13:55.267Z,1968.75
2022-08-23T15:14:47.118Z,1935.00
2022-08-23T15:15:47.060Z,1884.38
2022-08-23T15:16:47.027Z,1845.00
2022-08-23T15:17:46.950Z,1816.88
2022-08-23T15:18:46.893Z,1805.63
2022-08-23T15:19:46.840Z,1800.00